sensor_id;sensor_type;location;lat;lon;timestamp;pressure;altitude;pressure_sealevel;temperature;humidity
59513;BME280;45330;51.634;5.562;2023-07-28T00:01:26;100424.47;;;16.74;100.00
59513;BME280;45330;51.634;5.562;2023-07-28T00:03:52;100410.81;;;16.64;100.00
59513;BME280;45330;51.634;5.562;2023-07-28T00:06:17;100426.16;;;16.75;100.00
59513;BME280;45330;51.634;5.562;2023-07-28T00:08:43;100421.84;;;16.74;100.00
59513;BME280;45330;51.634;5.562;2023-07-28T00:11:09;100408.84;;;16.69;100.00
59513;BME280;45330;51.634;5.562;2023-07-28T00:13:36;100412.09;;;16.76;100.00
59513;BME280;45330;51.634;5.562;2023-07-28T00:16:01;100411.31;;;16.74;100.00
59513;BME280;45330;51.634;5.562;2023-07-28T00:18:27;100399.34;;;16.67;100.00
59513;BME280;45330;51.634;5.562;2023-07-28T00:20:52;100402.63;;;16.72;100.00
59513;BME280;45330;51.634;5.562;2023-07-28T00:23:17;100388.88;;;16.65;100.00
59513;BME280;45330;51.634;5.562;2023-07-28T00:25:43;100386.56;;;16.57;100.00
59513;BME280;45330;51.634;5.562;2023-07-28T00:28:08;100409.59;;;16.73;100.00
59513;BME280;45330;51.634;5.562;2023-07-28T00:30:33;100391.47;;;16.67;100.00
59513;BME280;45330;51.634;5.562;2023-07-28T00:32:59;100402.50;;;16.75;100.00
59513;BME280;45330;51.634;5.562;2023-07-28T00:35:24;100405.94;;;16.77;100.00
59513;BME280;45330;51.634;5.562;2023-07-28T00:37:49;100406.66;;;16.80;100.00
59513;BME280;45330;51.634;5.562;2023-07-28T00:40:15;100389.69;;;16.67;100.00
59513;BME280;45330;51.634;5.562;2023-07-28T00:42:40;100408.63;;;16.75;100.00
59513;BME280;45330;51.634;5.562;2023-07-28T00:45:06;100395.78;;;16.68;100.00
59513;BME280;45330;51.634;5.562;2023-07-28T00:47:31;100403.66;;;16.68;100.00
59513;BME280;45330;51.634;5.562;2023-07-28T00:49:57;100393.16;;;16.68;100.00
59513;BME280;45330;51.634;5.562;2023-07-28T00:52:23;100412.91;;;16.78;100.00
59513;BME280;45330;51.634;5.562;2023-07-28T00:54:48;100419.88;;;16.79;100.00
59513;BME280;45330;51.634;5.562;2023-07-28T00:57:14;100409.59;;;16.73;100.00
59513;BME280;45330;51.634;5.562;2023-07-28T00:59:39;100394.94;;;16.67;100.00
59513;BME280;45330;51.634;5.562;2023-07-28T01:02:05;100413.75;;;16.78;100.00
59513;BME280;45330;51.634;5.562;2023-07-28T01:04:31;100416.31;;;16.80;100.00
59513;BME280;45330;51.634;5.562;2023-07-28T01:07:05;100407.03;;;16.71;100.00
59513;BME280;45330;51.634;5.562;2023-07-28T01:09:46;100419.88;;;16.79;100.00
59513;BME280;45330;51.634;5.562;2023-07-28T01:12:12;100401.78;;;16.71;100.00
59513;BME280;45330;51.634;5.562;2023-07-28T01:14:37;100416.47;;;16.77;100.00
59513;BME280;45330;51.634;5.562;2023-07-28T01:17:03;100431.97;;;16.83;100.00
59513;BME280;45330;51.634;5.562;2023-07-28T01:19:29;100424.22;;;16.80;100.00
59513;BME280;45330;51.634;5.562;2023-07-28T01:27:50;100415.38;;;16.83;100.00
59513;BME280;45330;51.634;5.562;2023-07-28T01:30:16;100430.09;;;16.87;100.00
59513;BME280;45330;51.634;5.562;2023-07-28T01:32:42;100433.56;;;16.87;100.00
59513;BME280;45330;51.634;5.562;2023-07-28T01:35:08;100430.06;;;16.88;100.00
59513;BME280;45330;51.634;5.562;2023-07-28T01:37:33;100424.03;;;16.85;100.00
59513;BME280;45330;51.634;5.562;2023-07-28T01:39:58;100430.94;;;16.87;100.00
59513;BME280;45330;51.634;5.562;2023-07-28T01:42:24;100438.72;;;16.90;100.00
59513;BME280;45330;51.634;5.562;2023-07-28T01:44:50;100436.09;;;16.90;100.00
59513;BME280;45330;51.634;5.562;2023-07-28T01:47:15;100427.69;;;16.80;100.00
59513;BME280;45330;51.634;5.562;2023-07-28T01:49:41;100422.28;;;16.85;100.00
59513;BME280;45330;51.634;5.562;2023-07-28T01:52:06;100436.19;;;16.87;100.00
59513;BME280;45330;51.634;5.562;2023-07-28T01:54:32;100435.19;;;16.91;100.00
59513;BME280;45330;51.634;5.562;2023-07-28T01:56:57;100427.44;;;16.88;100.00
59513;BME280;45330;51.634;5.562;2023-07-28T01:59:22;100442.16;;;16.92;100.00
59513;BME280;45330;51.634;5.562;2023-07-28T02:01:48;100417.09;;;16.84;100.00
59513;BME280;45330;51.634;5.562;2023-07-28T02:04:13;100425.88;;;16.83;100.00
59513;BME280;45330;51.634;5.562;2023-07-28T02:06:39;100432.63;;;16.90;100.00
59513;BME280;45330;51.634;5.562;2023-07-28T02:09:04;100429.03;;;16.92;100.00
59513;BME280;45330;51.634;5.562;2023-07-28T02:11:29;100406.63;;;16.82;100.00
59513;BME280;45330;51.634;5.562;2023-07-28T02:13:55;100417.59;;;16.93;100.00
59513;BME280;45330;51.634;5.562;2023-07-28T02:16:20;100420.44;;;16.87;100.00
59513;BME280;45330;51.634;5.562;2023-07-28T02:18:46;100422.88;;;16.93;100.00
59513;BME280;45330;51.634;5.562;2023-07-28T02:21:11;100422.97;;;16.90;100.00
59513;BME280;45330;51.634;5.562;2023-07-28T02:23:36;100422.88;;;16.93;100.00
59513;BME280;45330;51.634;5.562;2023-07-28T02:26:02;100432.44;;;16.94;100.00
59513;BME280;45330;51.634;5.562;2023-07-28T02:28:27;100404.78;;;16.84;100.00
59513;BME280;45330;51.634;5.562;2023-07-28T02:30:53;100419.34;;;16.93;100.00
59513;BME280;45330;51.634;5.562;2023-07-28T02:33:18;100423.66;;;16.95;100.00
59513;BME280;45330;51.634;5.562;2023-07-28T02:35:43;100396.28;;;16.77;100.00
59513;BME280;45330;51.634;5.562;2023-07-28T02:38:09;100423.78;;;16.92;100.00
59513;BME280;45330;51.634;5.562;2023-07-28T02:40:34;100430.69;;;16.95;100.00
59513;BME280;45330;51.634;5.562;2023-07-28T02:43:00;100420.34;;;16.90;100.00
59513;BME280;45330;51.634;5.562;2023-07-28T02:45:25;100412.91;;;16.78;100.00
59513;BME280;45330;51.634;5.562;2023-07-28T02:47:51;100413.88;;;16.75;100.00
59513;BME280;45330;51.634;5.562;2023-07-28T02:50:16;100431.06;;;16.84;100.00
59513;BME280;45330;51.634;5.562;2023-07-28T02:52:41;100417.38;;;16.76;100.00
59513;BME280;45330;51.634;5.562;2023-07-28T02:55:07;100420.00;;;16.76;100.00
59513;BME280;45330;51.634;5.562;2023-07-28T02:57:33;100439.78;;;16.85;100.00
59513;BME280;45330;51.634;5.562;2023-07-28T02:59:58;100439.91;;;16.81;100.00
59513;BME280;45330;51.634;5.562;2023-07-28T03:02:24;100435.63;;;16.79;100.00
59513;BME280;45330;51.634;5.562;2023-07-28T03:04:49;100451.19;;;16.85;100.00
59513;BME280;45330;51.634;5.562;2023-07-28T03:07:15;100450.38;;;16.83;100.00
59513;BME280;45330;51.634;5.562;2023-07-28T03:09:40;100436.56;;;16.78;100.00
59513;BME280;45330;51.634;5.562;2023-07-28T03:12:06;100455.50;;;16.86;100.00
59513;BME280;45330;51.634;5.562;2023-07-28T03:14:32;100440.22;;;16.74;100.00
59513;BME280;45330;51.634;5.562;2023-07-28T03:16:57;100446.72;;;16.87;100.00
59513;BME280;45330;51.634;5.562;2023-07-28T03:19:23;100433.13;;;16.76;100.00
59513;BME280;45330;51.634;5.562;2023-07-28T03:21:48;100452.88;;;16.86;100.00
59513;BME280;45330;51.634;5.562;2023-07-28T03:24:13;100448.47;;;16.88;100.00
59513;BME280;45330;51.634;5.562;2023-07-28T03:26:39;100447.59;;;16.88;100.00
59513;BME280;45330;51.634;5.562;2023-07-28T03:29:04;100430.50;;;16.76;100.00
59513;BME280;45330;51.634;5.562;2023-07-28T03:31:30;100428.78;;;16.75;100.00
59513;BME280;45330;51.634;5.562;2023-07-28T03:33:55;100461.59;;;16.88;100.00
59513;BME280;45330;51.634;5.562;2023-07-28T03:36:21;100458.91;;;16.90;100.00
59513;BME280;45330;51.634;5.562;2023-07-28T03:38:46;100440.03;;;16.78;100.00
59513;BME280;45330;51.634;5.562;2023-07-28T03:41:12;100458.00;;;16.91;100.00
59513;BME280;45330;51.634;5.562;2023-07-28T03:43:38;100445.09;;;16.83;100.00
59513;BME280;45330;51.634;5.562;2023-07-28T03:46:03;100466.72;;;16.91;100.00
59513;BME280;45330;51.634;5.562;2023-07-28T03:48:29;100448.72;;;16.80;100.00
59513;BME280;45330;51.634;5.562;2023-07-28T03:50:54;100445.28;;;16.78;100.00
59513;BME280;45330;51.634;5.562;2023-07-28T03:53:20;100450.31;;;16.85;100.00
59513;BME280;45330;51.634;5.562;2023-07-28T03:55:45;100460.94;;;16.81;100.00
59513;BME280;45330;51.634;5.562;2023-07-28T03:58:11;100475.63;;;16.87;100.00
59513;BME280;45330;51.634;5.562;2023-07-28T04:00:36;100484.22;;;16.92;100.00
59513;BME280;45330;51.634;5.562;2023-07-28T04:03:01;100467.78;;;16.86;100.00
59513;BME280;45330;51.634;5.562;2023-07-28T04:05:27;100474.56;;;16.93;100.00
59513;BME280;45330;51.634;5.562;2023-07-28T04:07:52;100477.03;;;16.97;100.00
59513;BME280;45330;51.634;5.562;2023-07-28T04:10:17;100470.97;;;16.95;100.00
59513;BME280;45330;51.634;5.562;2023-07-28T04:12:44;100476.22;;;16.95;100.00
59513;BME280;45330;51.634;5.562;2023-07-28T04:15:09;100478.84;;;16.95;100.00
59513;BME280;45330;51.634;5.562;2023-07-28T04:17:35;100477.88;;;16.98;100.00
59513;BME280;45330;51.634;5.562;2023-07-28T04:20:00;100478.72;;;16.98;100.00
59513;BME280;45330;51.634;5.562;2023-07-28T04:22:26;100485.63;;;17.01;100.00
59513;BME280;45330;51.634;5.562;2023-07-28T04:24:51;100483.97;;;16.98;100.00
59513;BME280;45330;51.634;5.562;2023-07-28T04:27:17;100484.72;;;17.02;100.00
59513;BME280;45330;51.634;5.562;2023-07-28T04:29:42;100481.19;;;17.03;100.00
59513;BME280;45330;51.634;5.562;2023-07-28T04:32:08;100476.78;;;17.04;100.00
59513;BME280;45330;51.634;5.562;2023-07-28T04:34:34;100483.75;;;17.05;100.00
59513;BME280;45330;51.634;5.562;2023-07-28T04:36:59;100480.19;;;17.06;100.00
59513;BME280;45330;51.634;5.562;2023-07-28T04:39:24;100473.41;;;17.00;100.00
59513;BME280;45330;51.634;5.562;2023-07-28T04:41:50;100487.03;;;17.10;100.00
59513;BME280;45330;51.634;5.562;2023-07-28T04:44:15;100485.22;;;17.12;100.00
59513;BME280;45330;51.634;5.562;2023-07-28T04:46:41;100479.97;;;17.12;100.00
59513;BME280;45330;51.634;5.562;2023-07-28T04:49:06;100482.47;;;17.15;100.00
59513;BME280;45330;51.634;5.562;2023-07-28T04:51:32;100473.53;;;17.19;100.00
59513;BME280;45330;51.634;5.562;2023-07-28T04:53:57;100478.63;;;17.24;100.00
59513;BME280;45330;51.634;5.562;2023-07-28T04:56:22;100474.94;;;17.28;100.00
59513;BME280;45330;51.634;5.562;2023-07-28T04:58:48;100466.56;;;17.18;100.00
59513;BME280;45330;51.634;5.562;2023-07-28T05:01:13;100482.91;;;17.26;100.00
59513;BME280;45330;51.634;5.562;2023-07-28T05:03:38;100488.09;;;17.28;100.00
59513;BME280;45330;51.634;5.562;2023-07-28T05:06:04;100485.34;;;17.31;100.00
59513;BME280;45330;51.634;5.562;2023-07-28T05:08:30;100474.25;;;17.23;100.00
59513;BME280;45330;51.634;5.562;2023-07-28T05:10:56;100458.44;;;17.24;100.00
59513;BME280;45330;51.634;5.562;2023-07-28T05:13:21;100468.03;;;17.25;100.00
59513;BME280;45330;51.634;5.562;2023-07-28T05:15:47;100488.66;;;17.36;100.00
59513;BME280;45330;51.634;5.562;2023-07-28T05:18:12;100478.38;;;17.30;100.00
59513;BME280;45330;51.634;5.562;2023-07-28T05:20:37;100489.00;;;17.27;100.00
59513;BME280;45330;51.634;5.562;2023-07-28T05:23:03;100518.38;;;17.38;100.00
59513;BME280;45330;51.634;5.562;2023-07-28T05:25:28;100513.91;;;17.40;100.00
59513;BME280;45330;51.634;5.562;2023-07-28T05:27:54;100520.69;;;17.46;100.00
59513;BME280;45330;51.634;5.562;2023-07-28T05:30:19;100505.91;;;17.43;100.00
59513;BME280;45330;51.634;5.562;2023-07-28T05:32:46;100520.38;;;17.54;100.00
59513;BME280;45330;51.634;5.562;2023-07-28T05:35:11;100511.56;;;17.55;100.00
59513;BME280;45330;51.634;5.562;2023-07-28T05:37:37;100527.16;;;17.59;100.00
59513;BME280;45330;51.634;5.562;2023-07-28T05:40:02;100517.44;;;17.61;100.00
59513;BME280;45330;51.634;5.562;2023-07-28T05:42:28;100521.66;;;17.65;100.00
59513;BME280;45330;51.634;5.562;2023-07-28T05:44:54;100519.41;;;17.56;100.00
59513;BME280;45330;51.634;5.562;2023-07-28T05:47:20;100510.66;;;17.56;100.00
59513;BME280;45330;51.634;5.562;2023-07-28T05:49:46;100519.16;;;17.62;100.00
59513;BME280;45330;51.634;5.562;2023-07-28T05:52:12;100531.03;;;17.73;100.00
59513;BME280;45330;51.634;5.562;2023-07-28T05:54:37;100525.63;;;17.76;100.00
59513;BME280;45330;51.634;5.562;2023-07-28T05:57:02;100536.09;;;17.77;100.00
59513;BME280;45330;51.634;5.562;2023-07-28T05:59:28;100536.78;;;17.82;100.00
59513;BME280;45330;51.634;5.562;2023-07-28T06:01:54;100540.19;;;17.84;100.00
59513;BME280;45330;51.634;5.562;2023-07-28T06:04:20;100529.97;;;17.77;100.00
59513;BME280;45330;51.634;5.562;2023-07-28T06:06:45;100537.63;;;17.83;100.00
59513;BME280;45330;51.634;5.562;2023-07-28T06:09:10;100538.56;;;17.82;100.00
59513;BME280;45330;51.634;5.562;2023-07-28T06:11:36;100541.69;;;17.90;100.00
59513;BME280;45330;51.634;5.562;2023-07-28T06:14:01;100532.00;;;17.92;100.00
59513;BME280;45330;51.634;5.562;2023-07-28T06:16:26;100533.53;;;17.98;100.00
59513;BME280;45330;51.634;5.562;2023-07-28T06:18:52;100521.41;;;17.94;100.00
59513;BME280;45330;51.634;5.562;2023-07-28T06:21:17;100539.34;;;18.06;100.00
59513;BME280;45330;51.634;5.562;2023-07-28T06:23:42;100521.22;;;17.98;100.00
59513;BME280;45330;51.634;5.562;2023-07-28T06:26:08;100553.81;;;18.16;100.00
59513;BME280;45330;51.634;5.562;2023-07-28T06:28:33;100549.91;;;18.25;100.00
59513;BME280;45330;51.634;5.562;2023-07-28T06:30:58;100555.34;;;18.43;100.00
59513;BME280;45330;51.634;5.562;2023-07-28T06:33:25;100523.94;;;18.38;100.00
59513;BME280;45330;51.634;5.562;2023-07-28T06:35:50;100554.66;;;18.58;100.00
59513;BME280;45330;51.634;5.562;2023-07-28T06:38:17;100556.38;;;18.59;100.00
59513;BME280;45330;51.634;5.562;2023-07-28T06:40:42;100564.66;;;18.71;100.00
59513;BME280;45330;51.634;5.562;2023-07-28T06:43:08;100564.66;;;18.71;100.00
59513;BME280;45330;51.634;5.562;2023-07-28T06:45:33;100562.06;;;18.69;100.00
59513;BME280;45330;51.634;5.562;2023-07-28T06:47:59;100567.34;;;18.69;100.00
59513;BME280;45330;51.634;5.562;2023-07-28T06:50:24;100569.22;;;18.67;100.00
59513;BME280;45330;51.634;5.562;2023-07-28T06:52:50;100575.13;;;18.72;100.00
59513;BME280;45330;51.634;5.562;2023-07-28T06:55:16;100583.06;;;18.72;100.00
59513;BME280;45330;51.634;5.562;2023-07-28T06:57:41;100577.88;;;18.69;100.00
59513;BME280;45330;51.634;5.562;2023-07-28T07:00:07;100569.50;;;18.61;100.00
59513;BME280;45330;51.634;5.562;2023-07-28T07:02:36;100567.09;;;18.55;100.00
59513;BME280;45330;51.634;5.562;2023-07-28T07:05:02;100581.53;;;18.66;100.00
59513;BME280;45330;51.634;5.562;2023-07-28T07:07:27;100580.47;;;18.71;100.00
59513;BME280;45330;51.634;5.562;2023-07-28T07:09:52;100587.19;;;18.78;100.00
59513;BME280;45330;51.634;5.562;2023-07-28T07:12:18;100593.03;;;18.84;100.00
59513;BME280;45330;51.634;5.562;2023-07-28T07:14:44;100593.56;;;18.93;100.00
59513;BME280;45330;51.634;5.562;2023-07-28T07:17:10;100607.84;;;19.08;100.00
59513;BME280;45330;51.634;5.562;2023-07-28T07:19:35;100603.25;;;19.13;100.00
59513;BME280;45330;51.634;5.562;2023-07-28T07:22:00;100608.22;;;19.19;100.00
59513;BME280;45330;51.634;5.562;2023-07-28T07:24:27;100595.59;;;19.07;100.00
59513;BME280;45330;51.634;5.562;2023-07-28T07:26:52;100602.72;;;19.05;100.00
59513;BME280;45330;51.634;5.562;2023-07-28T07:29:17;100603.56;;;19.05;100.00
59513;BME280;45330;51.634;5.562;2023-07-28T07:31:43;100594.81;;;19.05;100.00
59513;BME280;45330;51.634;5.562;2023-07-28T07:34:08;100618.13;;;19.14;100.00
59513;BME280;45330;51.634;5.562;2023-07-28T07:36:34;100602.44;;;19.11;100.00
59513;BME280;45330;51.634;5.562;2023-07-28T07:38:59;100617.34;;;19.12;100.00
59513;BME280;45330;51.634;5.562;2023-07-28T07:41:25;100609.69;;;19.06;100.00
59513;BME280;45330;51.634;5.562;2023-07-28T07:43:53;100612.63;;;18.99;100.00
59513;BME280;45330;51.634;5.562;2023-07-28T07:46:19;100607.69;;;18.92;100.00
59513;BME280;45330;51.634;5.562;2023-07-28T07:48:44;100622.31;;;18.99;100.00
59513;BME280;45330;51.634;5.562;2023-07-28T07:51:10;100624.59;;;19.07;100.00
59513;BME280;45330;51.634;5.562;2023-07-28T07:53:36;100629.88;;;19.07;100.00
59513;BME280;45330;51.634;5.562;2023-07-28T07:56:03;100618.25;;;19.11;100.00
59513;BME280;45330;51.634;5.562;2023-07-28T07:58:29;100637.59;;;19.30;100.00
59513;BME280;45330;51.634;5.562;2023-07-28T08:00:55;100616.91;;;19.21;100.00
59513;BME280;45330;51.634;5.562;2023-07-28T08:03:20;100620.69;;;19.15;100.00
59513;BME280;45330;51.634;5.562;2023-07-28T08:05:46;100634.31;;;19.25;100.00
59513;BME280;45330;51.634;5.562;2023-07-28T08:08:11;100638.59;;;19.28;100.00
59513;BME280;45330;51.634;5.562;2023-07-28T08:10:38;100623.63;;;19.28;100.00
59513;BME280;45330;51.634;5.562;2023-07-28T08:13:04;100624.69;;;19.24;100.00
59513;BME280;45330;51.634;5.562;2023-07-28T08:15:29;100636.88;;;19.27;100.00
59513;BME280;45330;51.634;5.562;2023-07-28T08:17:55;100634.59;;;19.19;100.00
59513;BME280;45330;51.634;5.562;2023-07-28T08:20:20;100643.28;;;19.21;100.00
59513;BME280;45330;51.634;5.562;2023-07-28T08:22:45;100631.38;;;19.12;100.00
59513;BME280;45330;51.634;5.562;2023-07-28T08:25:11;100632.88;;;19.18;100.00
59513;BME280;45330;51.634;5.562;2023-07-28T08:27:36;100631.56;;;19.28;100.00
59513;BME280;45330;51.634;5.562;2023-07-28T08:30:03;100649.56;;;19.37;100.00
59513;BME280;45330;51.634;5.562;2023-07-28T08:32:28;100656.78;;;19.34;100.00
59513;BME280;45330;51.634;5.562;2023-07-28T08:34:54;100628.81;;;19.11;100.00
59513;BME280;45330;51.634;5.562;2023-07-28T08:37:19;100633.38;;;19.07;100.00
59513;BME280;45330;51.634;5.562;2023-07-28T08:39:45;100648.00;;;19.14;100.00
59513;BME280;45330;51.634;5.562;2023-07-28T08:42:10;100660.56;;;19.28;100.00
59513;BME280;45330;51.634;5.562;2023-07-28T08:44:35;100664.41;;;19.40;100.00
59513;BME280;45330;51.634;5.562;2023-07-28T08:47:03;100653.38;;;19.51;100.00
59513;BME280;45330;51.634;5.562;2023-07-28T08:49:32;100655.38;;;19.65;100.00
59513;BME280;45330;51.634;5.562;2023-07-28T08:52:02;100670.69;;;19.76;100.00
59513;BME280;45330;51.634;5.562;2023-07-28T08:54:29;100650.78;;;19.68;100.00
59513;BME280;45330;51.634;5.562;2023-07-28T08:56:54;100659.84;;;19.63;100.00
59513;BME280;45330;51.634;5.562;2023-07-28T08:59:27;100666.28;;;19.57;100.00
59513;BME280;45330;51.634;5.562;2023-07-28T09:01:54;100662.28;;;19.48;100.00
59513;BME280;45330;51.634;5.562;2023-07-28T09:04:23;100659.78;;;19.64;100.00
59513;BME280;45330;51.634;5.562;2023-07-28T09:06:50;100668.31;;;19.90;100.00
59513;BME280;45330;51.634;5.562;2023-07-28T09:09:17;100658.84;;;20.03;100.00
59513;BME280;45330;51.634;5.562;2023-07-28T09:11:51;100655.69;;;20.14;100.00
59513;BME280;45330;51.634;5.562;2023-07-28T09:14:18;100663.06;;;20.25;100.00
59513;BME280;45330;51.634;5.562;2023-07-28T09:16:45;100675.19;;;20.64;100.00
59513;BME280;45330;51.634;5.562;2023-07-28T09:19:11;100679.56;;;21.00;100.00
59513;BME280;45330;51.634;5.562;2023-07-28T09:21:42;100668.56;;;21.08;100.00
59513;BME280;45330;51.634;5.562;2023-07-28T09:24:11;100686.91;;;21.45;100.00
59513;BME280;45330;51.634;5.562;2023-07-28T09:26:41;100683.22;;;21.65;100.00
59513;BME280;45330;51.634;5.562;2023-07-28T09:29:17;100681.84;;;21.89;100.00
59513;BME280;45330;51.634;5.562;2023-07-28T09:31:46;100673.81;;;22.07;100.00
59513;BME280;45330;51.634;5.562;2023-07-28T09:34:12;100664.59;;;22.28;100.00
59513;BME280;45330;51.634;5.562;2023-07-28T09:36:47;100687.22;;;22.50;100.00
59513;BME280;45330;51.634;5.562;2023-07-28T09:39:14;100671.16;;;22.53;100.00
59513;BME280;45330;51.634;5.562;2023-07-28T09:41:39;100680.00;;;22.68;100.00
59513;BME280;45330;51.634;5.562;2023-07-28T09:44:05;100666.78;;;22.83;100.00
59513;BME280;45330;51.634;5.562;2023-07-28T09:46:35;100683.22;;;23.18;100.00
59513;BME280;45330;51.634;5.562;2023-07-28T09:49:09;100681.94;;;23.53;100.00
59513;BME280;45330;51.634;5.562;2023-07-28T09:51:36;100675.75;;;23.67;100.00
59513;BME280;45330;51.634;5.562;2023-07-28T09:54:12;100674.16;;;24.06;100.00
59513;BME280;45330;51.634;5.562;2023-07-28T09:56:41;100675.66;;;24.10;100.00
59513;BME280;45330;51.634;5.562;2023-07-28T09:59:11;100664.81;;;23.86;100.00
59513;BME280;45330;51.634;5.562;2023-07-28T10:01:39;100666.66;;;23.71;100.00
59513;BME280;45330;51.634;5.562;2023-07-28T10:04:05;100662.41;;;23.54;100.00
59513;BME280;45330;51.634;5.562;2023-07-28T10:06:31;100683.19;;;23.47;100.00
59513;BME280;45330;51.634;5.562;2023-07-28T10:08:59;100681.50;;;23.32;100.00
59513;BME280;45330;51.634;5.562;2023-07-28T10:11:25;100680.56;;;23.33;100.00
59513;BME280;45330;51.634;5.562;2023-07-28T10:13:54;100668.53;;;23.12;100.00
59513;BME280;45330;51.634;5.562;2023-07-28T10:16:29;100674.00;;;23.09;100.00
59513;BME280;45330;51.634;5.562;2023-07-28T10:18:55;100651.41;;;22.73;100.00
59513;BME280;45330;51.634;5.562;2023-07-28T10:21:20;100667.09;;;22.62;100.00
59513;BME280;45330;51.634;5.562;2023-07-28T10:23:54;100675.13;;;22.46;100.00
59513;BME280;45330;51.634;5.562;2023-07-28T10:26:37;100679.34;;;22.65;100.00
59513;BME280;45330;51.634;5.562;2023-07-28T10:29:14;100688.00;;;22.83;100.00
59513;BME280;45330;51.634;5.562;2023-07-28T10:31:53;100682.34;;;23.18;100.00
59513;BME280;45330;51.634;5.562;2023-07-28T10:34:21;100688.97;;;23.54;100.00
59513;BME280;45330;51.634;5.562;2023-07-28T10:36:49;100665.38;;;23.91;100.00
59513;BME280;45330;51.634;5.562;2023-07-28T10:39:21;100671.88;;;24.27;100.00
59513;BME280;45330;51.634;5.562;2023-07-28T10:42:08;100681.69;;;24.79;100.00
59513;BME280;45330;51.634;5.562;2023-07-28T10:44:36;100681.78;;;24.91;100.00
59513;BME280;45330;51.634;5.562;2023-07-28T10:47:07;100685.22;;;24.80;100.00
59513;BME280;45330;51.634;5.562;2023-07-28T10:49:33;100683.22;;;24.96;100.00
59513;BME280;45330;51.634;5.562;2023-07-28T10:51:59;100656.13;;;24.64;100.00
59513;BME280;45330;51.634;5.562;2023-07-28T10:54:24;100656.91;;;24.66;100.00
59513;BME280;45330;51.634;5.562;2023-07-28T10:56:50;100662.44;;;24.76;100.00
59513;BME280;45330;51.634;5.562;2023-07-28T10:59:15;100653.88;;;24.58;100.00
59513;BME280;45330;51.634;5.562;2023-07-28T11:01:42;100678.94;;;24.41;100.00
59513;BME280;45330;51.634;5.562;2023-07-28T11:04:15;100666.34;;;24.17;100.00
59513;BME280;45330;51.634;5.562;2023-07-28T11:06:43;100684.06;;;24.04;100.00
59513;BME280;45330;51.634;5.562;2023-07-28T11:09:09;100677.94;;;23.89;100.00
59513;BME280;45330;51.634;5.562;2023-07-28T11:11:36;100681.69;;;23.85;100.00
59513;BME280;45330;51.634;5.562;2023-07-28T11:14:04;100656.84;;;23.86;100.00
59513;BME280;45330;51.634;5.562;2023-07-28T11:16:32;100675.06;;;24.19;100.00
59513;BME280;45330;51.634;5.562;2023-07-28T11:19:06;100674.19;;;24.19;100.00
59513;BME280;45330;51.634;5.562;2023-07-28T11:21:38;100667.88;;;24.34;100.00
59513;BME280;45330;51.634;5.562;2023-07-28T11:24:04;100658.97;;;24.48;100.00
59513;BME280;45330;51.634;5.562;2023-07-28T11:26:30;100666.38;;;24.96;100.00
59513;BME280;45330;51.634;5.562;2023-07-28T11:28:55;100653.94;;;24.96;100.00
59513;BME280;45330;51.634;5.562;2023-07-28T11:31:25;100665.84;;;25.16;100.00
59513;BME280;45330;51.634;5.562;2023-07-28T11:33:53;100672.53;;;25.35;100.00
59513;BME280;45330;51.634;5.562;2023-07-28T11:36:24;100654.50;;;25.51;100.00
59513;BME280;45330;51.634;5.562;2023-07-28T11:38:50;100675.66;;;26.03;100.00
59513;BME280;45330;51.634;5.562;2023-07-28T11:41:15;100674.94;;;26.01;100.00
59513;BME280;45330;51.634;5.562;2023-07-28T11:43:41;100671.53;;;25.86;100.00
59513;BME280;45330;51.634;5.562;2023-07-28T11:46:34;100677.69;;;25.75;100.00
59513;BME280;45330;51.634;5.562;2023-07-28T11:51:39;100658.88;;;25.40;100.00
59513;BME280;45330;51.634;5.562;2023-07-28T11:54:10;100673.78;;;25.55;100.00
59513;BME280;45330;51.634;5.562;2023-07-28T11:56:36;100648.75;;;25.45;99.20
59513;BME280;45330;51.634;5.562;2023-07-28T11:59:01;100674.31;;;25.60;93.16
59513;BME280;45330;51.634;5.562;2023-07-28T12:01:28;100677.69;;;25.62;100.00
59513;BME280;45330;51.634;5.562;2023-07-28T12:03:53;100671.28;;;25.65;100.00
59513;BME280;45330;51.634;5.562;2023-07-28T12:06:19;100676.63;;;25.65;92.74
59513;BME280;45330;51.634;5.562;2023-07-28T12:08:45;100671.06;;;25.68;89.35
59513;BME280;45330;51.634;5.562;2023-07-28T12:11:14;100652.72;;;25.26;91.31
59513;BME280;45330;51.634;5.562;2023-07-28T12:13:52;100669.03;;;25.09;98.54
59513;BME280;45330;51.634;5.562;2023-07-28T12:16:40;100673.06;;;25.14;100.00
59513;BME280;45330;51.634;5.562;2023-07-28T12:19:07;100654.22;;;25.17;100.00
59513;BME280;45330;51.634;5.562;2023-07-28T12:21:32;100661.00;;;25.22;98.31
59513;BME280;45330;51.634;5.562;2023-07-28T12:23:57;100671.38;;;25.39;97.56
59513;BME280;45330;51.634;5.562;2023-07-28T12:26:23;100658.78;;;25.41;96.55
59513;BME280;45330;51.634;5.562;2023-07-28T12:28:49;100652.81;;;25.50;96.59
59513;BME280;45330;51.634;5.562;2023-07-28T12:31:14;100671.53;;;25.62;92.59
59513;BME280;45330;51.634;5.562;2023-07-28T12:33:39;100680.34;;;25.75;96.57
59513;BME280;45330;51.634;5.562;2023-07-28T12:36:05;100661.69;;;25.75;90.90
59513;BME280;45330;51.634;5.562;2023-07-28T12:38:31;100679.91;;;26.06;88.19
59513;BME280;45330;51.634;5.562;2023-07-28T12:40:56;100645.50;;;26.02;87.37
59513;BME280;45330;51.634;5.562;2023-07-28T12:43:22;100683.56;;;26.29;84.14
59513;BME280;45330;51.634;5.562;2023-07-28T12:45:48;100688.59;;;26.21;84.33